Airfield :
LOGIN :

Register | Disclaimer

   EN    FR    IT 

 










Legend :    VFR   Marginal VFR   IFR   Intensive IFR   Very Intensive IFR
Visi :
Ceiling :
>= 8 km
>= 3000ft
5 to 8 km
1000 to 3000 ft
1500m to 5 km
500 to 1000 ft
800 to 1500m
200 to 500 ft
< 800m
< 200 ft
Symbols :   Thunderstorms  Fog  Heavy snow  Heavy precipitations  Wind > 20 kt
SIGMETs :     Misc.  Thunderstorms  Icing  Turbulence  Mountain Waves  Volcanic Ashes







- Airport Elevation : 23 ft
- IATA code : XFW


EDHI - Hamburg Finkenwerder

CURRENT METAR :
  • 221220Z 30021KT 9999 FEW034 SCT060 16/08 Q1018

EXPIRED METARs :
  • 221150Z 30018KT 9999 FEW033 SCT054 16/10 Q1018
  • 221120Z 30016KT 9999 FEW037 SCT058 16/08 Q1018
  • 221050Z 30017KT 270V330 9999 SCT038 16/07 Q1018
  • 221020Z 30015KT 270V340 9999 SCT037 SCT045 16/08 Q1017
  • 220950Z 28011KT 9999 SCT021 SCT049 15/10 Q1017

TAF TAF EDHI
Valid from the 22 at 12:00 until the 22 at 21:00 UTC


221100Z 2212/2221 29015G25KT 9999 SCT025
PROB30
TEMPO 2212/2216 30020G35KT SHRA SCT015CB
BECMG 2220/2221 29008KT
No reported NOTAMs for that airfield.



MET'MAP, your aeronautical weather chart ! - Copyright ORBIFLY December 2007 - Disclaimer

ORBIFLY MET'MAP TEAM :

Programming & Development : Alexandra Zaïnal
Concept & Development : Baudouin d'Aumeries
Co-Development & Prog : Marc-Olivier Méhu
Technical & hardware support : Manuel Goepfert

Contact : metmap@orbifly.com




SOURCES & CREDITS :

   NOAA